Chirk, United Kingdom
Current Conditions -  °F | °C
As of 8:50 AM on Wednesday 26 Nov 2014 (Local Time) from EGNR Reporting Station
Light Rain Light Rain  
Wind Chill: 45°   Ceiling: 1400
Heat Index: 45°   Visibility: 1.7mi
Dew Point: 43°   Wind: 3mph
Humidity: 93%   Direction: 310°NW
Pressure: 29.94"   Gusts: NA
Location:  52.94°N, 3.06°W
Report Text: EGNR 260850Z 31003KT 2800 -RA BR BKN014 BKN022 07/06 Q1014
Loading
Personal Weather Stations






























Interactive Weather Map New forecast layout! Learn more

10-Day Weather Forecast

Advertisements
Track Severe Weather on mobile